createdAt,value
2019-06-20T00:08:01.286Z,16.10
2019-06-20T00:10:29.886Z,16.20
2019-06-20T00:13:00.711Z,16.20
2019-06-20T00:15:27.570Z,16.10
2019-06-20T00:17:55.434Z,16.20
2019-06-20T00:22:51.595Z,16.20
2019-06-20T00:25:19.768Z,16.30
2019-06-20T00:30:17.125Z,16.30
2019-06-20T00:35:32.695Z,16.30
2019-06-20T00:38:00.594Z,16.40
2019-06-20T00:45:29.679Z,16.30
2019-06-20T00:48:17.747Z,16.20
2019-06-20T00:50:48.224Z,16.30
2019-06-20T00:53:16.411Z,16.40
2019-06-20T00:58:14.046Z,16.50
2019-06-20T01:03:26.871Z,16.60
2019-06-20T01:08:22.379Z,16.50
2019-06-20T01:10:50.167Z,16.50
2019-06-20T01:13:32.579Z,16.40
2019-06-20T01:15:50.149Z,16.40
2019-06-20T01:23:23.587Z,16.30
2019-06-20T01:28:29.856Z,16.30
2019-06-20T01:30:57.604Z,16.20
2019-06-20T02:55:06.818Z,15.80
2019-06-20T03:02:32.432Z,15.60
2019-06-20T03:05:00.652Z,15.60
2019-06-20T03:07:28.768Z,15.60
2019-06-20T03:17:21.440Z,15.70
2019-06-20T03:19:50.078Z,15.50
2019-06-20T03:22:18.123Z,15.50
2019-06-20T03:24:46.639Z,15.50
2019-06-20T03:27:14.744Z,15.60
2019-06-20T03:29:42.943Z,15.60
2019-06-20T03:32:10.793Z,15.60
2019-06-20T03:37:07.006Z,15.60
2019-06-20T03:39:35.887Z,15.50
2019-06-20T03:42:03.580Z,13.20
2019-06-20T03:44:31.629Z,15.60
2019-06-20T03:49:27.649Z,15.70
2019-06-20T03:51:55.476Z,15.80
2019-06-20T03:54:23.377Z,15.80
2019-06-20T03:56:51.229Z,15.80
2019-06-20T03:59:18.982Z,16.00
2019-06-20T04:01:49.299Z,16.10
2019-06-20T04:04:17.195Z,16.30
2019-06-20T04:06:45.071Z,16.40
2019-06-20T04:09:12.881Z,16.50
2019-06-20T04:11:40.746Z,16.40
2019-06-20T04:14:08.573Z,16.70
2019-06-20T04:16:36.441Z,16.80
2019-06-20T04:19:04.469Z,16.90
2019-06-20T04:21:32.065Z,17.10
2019-06-20T04:23:59.652Z,17.30
2019-06-20T04:26:27.377Z,17.20
2019-06-20T04:28:55.191Z,17.20
2019-06-20T04:31:23.313Z,17.40
2019-06-20T04:33:52.699Z,17.50
2019-06-20T04:36:20.678Z,17.50
2019-06-20T04:41:16.459Z,17.60
2019-06-20T04:46:19.919Z,17.60
2019-06-20T04:48:48.893Z,17.70
2019-06-20T04:51:16.948Z,17.80
2019-06-20T04:53:44.852Z,17.70
2019-06-20T04:56:13.441Z,17.90
2019-06-20T04:58:41.503Z,17.80
2019-06-20T05:01:09.373Z,17.90
2019-06-20T05:03:39.549Z,18.00
2019-06-20T05:06:07.699Z,18.00
2019-06-20T05:08:35.635Z,18.10
2019-06-20T05:11:03.484Z,18.10
2019-06-20T05:13:31.223Z,18.30
2019-06-20T05:15:59.080Z,18.30
2019-06-20T05:20:54.573Z,18.60
2019-06-20T05:23:22.318Z,18.60
2019-06-20T05:25:50.070Z,18.70
2019-06-20T05:28:17.746Z,18.90
2019-06-20T05:30:46.158Z,19.00
2019-06-20T05:33:14.556Z,19.10
2019-06-20T05:35:42.840Z,19.20
2019-06-20T05:38:10.771Z,19.30
2019-06-20T05:40:38.578Z,19.50
2019-06-20T05:43:06.350Z,19.60
2019-06-20T05:48:01.861Z,19.70
2019-06-20T05:50:29.647Z,20.00
2019-06-20T05:52:57.397Z,20.10
2019-06-20T05:55:25.267Z,20.40
2019-06-20T05:57:53.087Z,20.40
2019-06-20T06:00:20.995Z,20.50
2019-06-20T06:05:20.411Z,20.80
2019-06-20T06:07:48.320Z,21.00
2019-06-20T06:10:16.852Z,21.00
2019-06-20T06:12:45.215Z,21.20
2019-06-20T06:15:14.322Z,21.10
2019-06-20T06:17:42.194Z,21.40
2019-06-20T06:20:10.237Z,21.50
2019-06-20T06:22:38.022Z,21.30
2019-06-20T06:25:06.513Z,21.20
2019-06-20T06:27:34.370Z,21.50
2019-06-20T06:30:02.224Z,21.70
2019-06-20T06:32:39.524Z,21.70
2019-06-20T06:34:59.668Z,22.00
2019-06-20T06:37:27.456Z,22.00
2019-06-20T06:39:55.361Z,22.50
2019-06-20T06:42:23.143Z,22.40
2019-06-20T06:44:51.024Z,22.30
2019-06-20T06:47:18.776Z,22.30
2019-06-20T06:49:46.443Z,22.30
2019-06-20T06:52:14.187Z,22.40
2019-06-20T06:54:42.059Z,22.40
2019-06-20T06:57:09.889Z,22.60
2019-06-20T06:59:37.742Z,22.60
2019-06-20T07:02:08.344Z,22.70
2019-06-20T07:04:36.095Z,23.00
2019-06-20T07:09:35.532Z,23.20
2019-06-20T07:12:03.510Z,23.40
2019-06-20T07:14:31.433Z,23.30
2019-06-20T07:17:00.573Z,23.60
2019-06-20T07:19:29.581Z,23.90
2019-06-20T07:21:57.323Z,23.90
2019-06-20T07:24:25.081Z,24.20
2019-06-20T07:26:52.980Z,24.30
2019-06-20T07:29:20.893Z,24.60
2019-06-20T07:31:48.639Z,25.00
2019-06-20T07:34:16.313Z,24.90
2019-06-20T07:36:44.142Z,25.20
2019-06-20T07:39:12.285Z,25.40
2019-06-20T07:41:40.031Z,25.60
2019-06-20T07:44:07.876Z,25.90
2019-06-20T07:46:35.672Z,26.00
2019-06-20T07:49:03.607Z,26.10
2019-06-20T07:51:31.540Z,26.20
2019-06-20T07:53:59.666Z,26.20
2019-06-20T07:56:27.570Z,26.40
2019-06-20T07:58:55.523Z,26.50
2019-06-20T08:01:23.658Z,26.40
2019-06-20T08:03:51.820Z,26.40
2019-06-20T08:06:20.013Z,26.50
2019-06-20T08:08:48.160Z,26.50
2019-06-20T08:11:22.873Z,26.60
2019-06-20T08:13:50.946Z,25.90
2019-06-20T08:16:21.867Z,26.60
2019-06-20T08:18:51.080Z,26.90
2019-06-20T08:21:19.032Z,26.90
2019-06-20T08:26:14.411Z,27.20
2019-06-20T08:28:42.212Z,27.20
2019-06-20T08:31:10.271Z,27.10
2019-06-20T08:33:38.104Z,27.10
2019-06-20T08:36:10.334Z,27.20
2019-06-20T08:38:38.546Z,27.10
2019-06-20T08:41:06.707Z,27.30
2019-06-20T08:43:34.659Z,27.50
2019-06-20T08:46:04.080Z,27.40
2019-06-20T08:48:35.849Z,27.80
2019-06-20T08:53:35.293Z,27.90
2019-06-20T08:56:06.968Z,28.00
2019-06-20T08:58:36.181Z,28.00
2019-06-20T09:03:46.447Z,28.40
2019-06-20T09:06:14.445Z,28.50
2019-06-20T09:09:02.791Z,28.30
2019-06-20T09:11:30.706Z,28.50
2019-06-20T09:13:59.239Z,28.50
2019-06-20T09:16:27.447Z,28.60
2019-06-20T09:18:56.694Z,28.60
2019-06-20T09:21:26.232Z,29.20
2019-06-20T09:23:55.697Z,29.40
2019-06-20T09:28:55.632Z,29.50
2019-06-20T09:31:24.424Z,29.60
2019-06-20T09:33:54.148Z,29.70
2019-06-20T09:36:23.232Z,29.40
2019-06-20T09:38:52.498Z,29.60
2019-06-20T09:41:21.541Z,29.70
2019-06-20T09:44:19.767Z,29.70
2019-06-20T09:46:49.795Z,30.00
2019-06-20T09:54:40.893Z,30.20
2019-06-20T09:57:25.342Z,30.10
2019-06-20T10:00:09.934Z,30.00
2019-06-20T10:02:47.163Z,29.40
2019-06-20T10:05:18.855Z,29.80
2019-06-20T10:07:48.571Z,29.80
2019-06-20T10:10:18.225Z,29.90
2019-06-20T10:13:00.437Z,29.50
2019-06-20T10:15:47.935Z,29.70
2019-06-20T10:18:39.614Z,29.70
2019-06-20T10:21:07.260Z,30.10
2019-06-20T10:23:35.134Z,29.70
2019-06-20T10:30:58.469Z,31.30
2019-06-20T10:34:07.499Z,31.40
2019-06-20T10:36:40.734Z,31.50
2019-06-20T10:43:34.779Z,30.80
2019-06-20T10:49:50.377Z,31.30
2019-06-20T10:56:25.376Z,31.70
2019-06-20T11:00:30.091Z,32.30
2019-06-20T11:28:39.785Z,32.60
2019-06-20T11:31:14.343Z,32.40
2019-06-20T11:35:21.201Z,32.10
2019-06-20T11:38:03.727Z,31.60
2019-06-20T11:40:36.954Z,31.60
2019-06-20T11:43:14.476Z,32.10
2019-06-20T11:49:08.315Z,32.20
2019-06-20T11:55:24.962Z,33.30
2019-06-20T11:57:55.716Z,33.00
2019-06-20T12:02:40.539Z,33.10
2019-06-20T12:03:39.625Z,33.30
2019-06-20T12:07:05.439Z,33.30
2019-06-20T12:09:54.182Z,33.40
2019-06-20T12:13:02.688Z,33.50
2019-06-20T12:15:30.380Z,32.80
2019-06-20T12:17:58.041Z,33.00
2019-06-20T12:20:26.618Z,32.00
2019-06-20T12:23:10.693Z,32.00
2019-06-20T12:25:44.274Z,32.60
2019-06-20T12:28:14.878Z,32.30
2019-06-20T12:37:40.427Z,31.80
2019-06-20T12:40:39.288Z,31.60
2019-06-20T13:05:03.572Z,32.50
2019-06-20T13:07:35.537Z,32.00
2019-06-20T13:10:12.887Z,31.90
2019-06-20T13:12:57.727Z,32.30
2019-06-20T13:15:27.351Z,32.70
2019-06-20T13:17:55.199Z,31.90
2019-06-20T13:20:24.002Z,31.50
2019-06-20T13:24:13.454Z,31.40
2019-06-20T13:29:18.353Z,31.40
2019-06-20T13:32:00.601Z,31.50
2019-06-20T13:34:15.439Z,31.50
2019-06-20T13:36:43.146Z,31.30
2019-06-20T13:39:10.912Z,31.30
2019-06-20T13:41:40.789Z,31.00
2019-06-20T13:44:08.904Z,30.90
2019-06-20T13:46:36.455Z,30.90
2019-06-20T13:49:03.995Z,30.60
2019-06-20T13:51:31.551Z,29.20
2019-06-20T13:53:59.152Z,27.70
2019-06-20T13:56:26.744Z,27.60
2019-06-20T13:58:54.554Z,25.00
2019-06-20T14:01:22.479Z,24.10
2019-06-20T14:06:30.706Z,22.80
2019-06-20T14:09:16.687Z,22.40
2019-06-20T14:11:45.404Z,21.80
2019-06-20T14:14:14.891Z,21.40
2019-06-20T14:16:42.999Z,21.10
2019-06-20T14:19:10.586Z,20.90
2019-06-20T14:21:38.413Z,20.80
2019-06-20T14:24:06.039Z,20.60
2019-06-20T14:26:33.633Z,20.60
2019-06-20T14:29:01.250Z,20.60
2019-06-20T14:31:29.802Z,20.60
2019-06-20T14:33:58.244Z,20.70
2019-06-20T14:36:25.748Z,20.80
2019-06-20T14:38:53.802Z,20.70
2019-06-20T14:41:21.478Z,20.40
2019-06-20T14:43:49.633Z,20.10
2019-06-20T14:46:17.209Z,19.80
2019-06-20T14:48:45.524Z,19.70
2019-06-20T14:51:14.133Z,19.60
2019-06-20T14:53:43.909Z,19.50
2019-06-20T14:56:11.109Z,19.40
2019-06-20T14:58:38.693Z,19.40
2019-06-20T15:01:06.260Z,19.50
2019-06-20T15:03:33.889Z,19.50
2019-06-20T15:06:01.439Z,19.50
2019-06-20T15:08:29.057Z,19.60
2019-06-20T15:10:56.576Z,19.80
2019-06-20T15:13:24.127Z,20.00
2019-06-20T15:15:51.779Z,20.00
2019-06-20T15:18:19.295Z,19.90
2019-06-20T15:20:48.725Z,19.90
2019-06-20T15:23:17.245Z,19.90
2019-06-20T15:25:45.822Z,19.90
2019-06-20T15:28:14.287Z,19.80
2019-06-20T15:30:41.740Z,19.80
2019-06-20T15:33:12.868Z,19.80
2019-06-20T15:35:40.505Z,19.90
2019-06-20T15:38:08.023Z,19.90
2019-06-20T15:40:35.554Z,19.80
2019-06-20T15:43:03.146Z,19.70
2019-06-20T15:45:30.724Z,19.60
2019-06-20T15:47:58.292Z,19.50
2019-06-20T15:50:25.825Z,19.40
2019-06-20T15:52:53.372Z,19.40
2019-06-20T15:55:20.935Z,19.30
2019-06-20T15:57:48.551Z,19.20
2019-06-20T16:00:18.095Z,19.20
2019-06-20T16:02:45.692Z,19.10
2019-06-20T16:05:16.678Z,19.20
2019-06-20T16:07:44.222Z,19.20
2019-06-20T16:10:12.663Z,19.40
2019-06-20T16:12:40.221Z,19.30
2019-06-20T16:15:08.665Z,19.30
2019-06-20T16:17:36.250Z,19.50
2019-06-20T16:20:04.285Z,19.80
2019-06-20T17:43:54.210Z,24.30
2019-06-20T17:46:22.015Z,25.40
2019-06-20T17:48:50.118Z,25.50
2019-06-20T17:51:18.062Z,25.40
2019-06-20T17:53:49.721Z,25.60
2019-06-20T18:01:13.934Z,25.50
2019-06-20T18:06:09.431Z,24.70
2019-06-20T18:08:40.029Z,24.20
2019-06-20T18:11:19.717Z,23.70
2019-06-20T18:13:47.440Z,23.90
2019-06-20T18:16:24.712Z,23.20
2019-06-20T18:19:04.704Z,22.90
2019-06-20T18:21:32.579Z,22.60
2019-06-20T18:24:00.989Z,22.60
2019-06-20T18:26:43.383Z,22.40
2019-06-20T19:13:34.063Z,19.90
2019-06-20T19:16:03.766Z,19.90
2019-06-20T19:18:31.498Z,19.90
2019-06-20T19:20:59.085Z,20.00
2019-06-20T19:23:26.613Z,20.30
2019-06-20T19:25:54.178Z,20.30
2019-06-20T19:28:21.827Z,20.50
2019-06-20T19:30:51.315Z,20.60
2019-06-20T19:33:19.519Z,20.60
2019-06-20T19:35:47.878Z,20.60
2019-06-20T19:38:15.497Z,20.60
2019-06-20T19:40:47.283Z,20.60
2019-06-20T19:43:15.377Z,20.70
2019-06-20T19:45:43.053Z,20.70
2019-06-20T19:48:10.706Z,20.60
2019-06-20T19:50:38.690Z,20.60
2019-06-20T19:53:06.710Z,20.50
2019-06-20T19:55:34.517Z,20.50
2019-06-20T19:58:02.065Z,20.50
2019-06-20T20:00:29.675Z,20.60
2019-06-20T20:02:57.564Z,20.60
2019-06-20T20:05:25.472Z,20.60
2019-06-20T20:07:54.347Z,20.60
2019-06-20T20:10:38.138Z,20.60
2019-06-20T20:13:05.728Z,20.60
2019-06-20T20:15:34.321Z,20.60
2019-06-20T20:18:03.106Z,20.60
2019-06-20T20:20:32.684Z,20.60
2019-06-20T20:23:00.902Z,20.60
2019-06-20T20:25:28.640Z,20.60
2019-06-20T20:27:56.746Z,20.60
2019-06-20T20:30:24.682Z,20.50
2019-06-20T20:32:53.327Z,20.50
2019-06-20T20:35:34.831Z,20.60
2019-06-20T20:37:52.109Z,20.60
2019-06-20T20:40:20.191Z,20.70
2019-06-20T20:42:48.148Z,20.60
2019-06-20T20:45:15.878Z,20.70
2019-06-20T20:47:43.829Z,20.70
2019-06-20T20:50:12.347Z,20.70
2019-06-20T20:52:39.921Z,20.70
2019-06-20T20:55:08.906Z,20.70
2019-06-20T20:57:48.189Z,20.70
2019-06-20T21:00:23.867Z,20.70
2019-06-20T21:02:52.880Z,20.80
2019-06-20T21:05:21.667Z,20.90
